sensor_id;sensor_type;location;lat;lon;timestamp;pressure;altitude;pressure_sealevel;temperature;humidity
45253;BME280;63171;50.520;30.486;2023-02-11T06:46:44;101036.16;;;0.88;88.71
45253;BME280;63171;50.520;30.486;2023-02-11T06:47:35;101036.94;;;1.07;88.79
45253;BME280;63171;50.520;30.486;2023-02-11T06:48:24;101042.13;;;1.01;88.85
45253;BME280;63171;50.520;30.486;2023-02-11T06:49:15;101028.34;;;1.02;89.12
45253;BME280;63171;50.520;30.486;2023-02-11T06:50:07;101034.41;;;0.97;88.68
45253;BME280;63171;50.520;30.486;2023-02-11T06:51:01;101029.28;;;0.87;88.83
45253;BME280;63171;50.520;30.486;2023-02-11T06:51:51;101027.44;;;1.17;89.62
45253;BME280;63171;50.520;30.486;2023-02-11T06:52:42;101021.81;;;1.84;89.65
45253;BME280;63171;50.520;30.486;2023-02-11T06:53:34;101032.44;;;1.47;89.20
45253;BME280;63171;50.520;30.486;2023-02-11T06:54:25;101021.38;;;1.26;89.02
45253;BME280;63171;50.520;30.486;2023-02-11T06:55:15;101026.53;;;1.19;88.90
45253;BME280;63171;50.520;30.486;2023-02-11T06:56:08;101024.84;;;1.22;89.14
45253;BME280;63171;50.520;30.486;2023-02-11T06:56:58;101024.88;;;1.12;88.57
45253;BME280;63171;50.520;30.486;2023-02-11T06:57:49;101018.03;;;1.04;88.34
45253;BME280;63171;50.520;30.486;2023-02-11T06:58:39;101023.22;;;0.99;88.43
45253;BME280;63171;50.520;30.486;2023-02-11T06:59:29;101023.22;;;0.99;88.44
45253;BME280;63171;50.520;30.486;2023-02-11T07:00:19;101023.19;;;1.04;88.82
45253;BME280;63171;50.520;30.486;2023-02-11T07:01:12;101019.75;;;1.08;88.82
45253;BME280;63171;50.520;30.486;2023-02-11T07:02:03;101023.94;;;1.27;88.83
45253;BME280;63171;50.520;30.486;2023-02-11T07:02:54;101007.81;;;2.10;89.55
45253;BME280;63171;50.520;30.486;2023-02-11T07:03:44;101008.94;;;1.81;89.61
45253;BME280;63171;50.520;30.486;2023-02-11T07:04:34;101019.44;;;1.58;88.95
45253;BME280;63171;50.520;30.486;2023-02-11T07:05:24;101024.66;;;1.46;89.05
45253;BME280;63171;50.520;30.486;2023-02-11T07:06:18;101018.69;;;1.42;88.76
45253;BME280;63171;50.520;30.486;2023-02-11T07:07:08;101024.69;;;1.44;88.56
45253;BME280;63171;50.520;30.486;2023-02-11T07:07:59;101022.13;;;1.43;88.21
45253;BME280;63171;50.520;30.486;2023-02-11T07:08:49;101017.03;;;1.29;88.33
45253;BME280;63171;50.520;30.486;2023-02-11T07:09:39;101021.38;;;1.24;88.48
45253;BME280;63171;50.520;30.486;2023-02-11T07:10:29;101022.25;;;1.18;87.88
45253;BME280;63171;50.520;30.486;2023-02-11T07:11:22;101022.25;;;1.23;88.02
45253;BME280;63171;50.520;30.486;2023-02-11T07:12:13;101018.78;;;1.26;88.38
45253;BME280;63171;50.520;30.486;2023-02-11T07:13:03;101019.63;;;1.28;87.76
45253;BME280;63171;50.520;30.486;2023-02-11T07:13:58;101011.91;;;1.25;87.93
45253;BME280;63171;50.520;30.486;2023-02-11T07:14:49;101021.41;;;1.21;87.61
45253;BME280;63171;50.520;30.486;2023-02-11T07:15:39;101015.38;;;1.19;87.73
45253;BME280;63171;50.520;30.486;2023-02-11T07:16:30;101017.97;;;1.17;87.46
45253;BME280;63171;50.520;30.486;2023-02-11T07:17:21;101023.09;;;1.19;87.71
45253;BME280;63171;50.520;30.486;2023-02-11T07:18:14;101020.53;;;1.22;87.63
45253;BME280;63171;50.520;30.486;2023-02-11T07:19:04;101023.97;;;1.23;87.65
45253;BME280;63171;50.520;30.486;2023-02-11T07:19:54;101018.81;;;1.24;87.72
45253;BME280;63171;50.520;30.486;2023-02-11T07:20:44;101023.13;;;1.17;87.66
45253;BME280;63171;50.520;30.486;2023-02-11T07:21:35;101016.22;;;1.18;87.92
45253;BME280;63171;50.520;30.486;2023-02-11T07:22:25;101012.81;;;1.14;87.37
45253;BME280;63171;50.520;30.486;2023-02-11T07:23:15;101012.84;;;1.11;87.77
45253;BME280;63171;50.520;30.486;2023-02-11T07:24:06;101018.00;;;1.11;87.85
45253;BME280;63171;50.520;30.486;2023-02-11T07:24:57;101014.59;;;1.03;87.23
45253;BME280;63171;50.520;30.486;2023-02-11T07:25:47;101025.75;;;1.11;87.62
45253;BME280;63171;50.520;30.486;2023-02-11T07:26:37;101023.97;;;1.18;87.66
45253;BME280;63171;50.520;30.486;2023-02-11T07:27:27;101023.97;;;1.23;87.80
45253;BME280;63171;50.520;30.486;2023-02-11T07:28:18;101017.88;;;1.31;88.01
45253;BME280;63171;50.520;30.486;2023-02-11T07:29:07;101009.28;;;1.31;87.50
45253;BME280;63171;50.520;30.486;2023-02-11T07:29:58;101011.84;;;1.35;88.01
45253;BME280;63171;50.520;30.486;2023-02-11T07:30:48;101007.63;;;1.24;87.43
45253;BME280;63171;50.520;30.486;2023-02-11T07:31:39;101002.47;;;1.24;87.45
45253;BME280;63171;50.520;30.486;2023-02-11T07:32:30;101008.44;;;1.29;87.59
45253;BME280;63171;50.520;30.486;2023-02-11T07:33:21;101011.00;;;1.30;87.60
45253;BME280;63171;50.520;30.486;2023-02-11T07:34:10;101019.63;;;1.28;87.52
45253;BME280;63171;50.520;30.486;2023-02-11T07:35:01;101016.19;;;1.29;88.12
45253;BME280;63171;50.520;30.486;2023-02-11T07:35:52;101019.59;;;1.37;87.99
45253;BME280;63171;50.520;30.486;2023-02-11T07:36:42;101014.34;;;1.46;87.67
45253;BME280;63171;50.520;30.486;2023-02-11T07:37:33;101012.63;;;1.50;88.23
45253;BME280;63171;50.520;30.486;2023-02-11T07:38:24;101012.59;;;1.53;88.38
45253;BME280;63171;50.520;30.486;2023-02-11T07:39:14;101010.91;;;1.48;87.72
45253;BME280;63171;50.520;30.486;2023-02-11T07:40:06;101010.06;;;1.48;88.04
45253;BME280;63171;50.520;30.486;2023-02-11T07:40:58;101002.34;;;1.39;87.50
45253;BME280;63171;50.520;30.486;2023-02-11T07:41:49;101008.34;;;1.42;87.67
45253;BME280;63171;50.520;30.486;2023-02-11T07:42:39;101001.50;;;1.40;87.76
45253;BME280;63171;50.520;30.486;2023-02-11T07:43:30;101004.09;;;1.37;87.84
45253;BME280;63171;50.520;30.486;2023-02-11T07:44:20;100998.94;;;1.37;87.92
45253;BME280;63171;50.520;30.486;2023-02-11T07:45:10;100996.31;;;1.43;87.54
45253;BME280;63171;50.520;30.486;2023-02-11T07:46:02;101003.19;;;1.44;88.11
45253;BME280;63171;50.520;30.486;2023-02-11T07:46:54;100992.84;;;1.44;87.79
45253;BME280;63171;50.520;30.486;2023-02-11T07:47:45;100992.81;;;1.52;87.81
45253;BME280;63171;50.520;30.486;2023-02-11T07:48:36;100992.81;;;1.52;87.94
45253;BME280;63171;50.520;30.486;2023-02-11T07:49:25;100988.56;;;1.43;87.71
45253;BME280;63171;50.520;30.486;2023-02-11T07:50:17;100977.38;;;1.47;87.81
45253;BME280;63171;50.520;30.486;2023-02-11T07:51:14;100981.66;;;1.43;87.93
45253;BME280;63171;50.520;30.486;2023-02-11T07:52:04;100973.09;;;1.40;87.58
45253;BME280;63171;50.520;30.486;2023-02-11T07:52:55;100976.50;;;1.43;87.81
45253;BME280;63171;50.520;30.486;2023-02-11T07:53:45;100970.47;;;1.44;88.17
45253;BME280;63171;50.520;30.486;2023-02-11T07:54:36;100967.84;;;1.52;88.35
45253;BME280;63171;50.520;30.486;2023-02-11T07:55:25;100963.59;;;1.48;87.66
45253;BME280;63171;50.520;30.486;2023-02-11T07:56:18;100954.13;;;1.48;87.83
45253;BME280;63171;50.520;30.486;2023-02-11T07:57:08;100958.44;;;1.43;87.93
45253;BME280;63171;50.520;30.486;2023-02-11T07:57:59;100959.31;;;1.47;87.94
45253;BME280;63171;50.520;30.486;2023-02-11T07:58:49;100960.16;;;1.47;88.03
45253;BME280;63171;50.520;30.486;2023-02-11T07:59:40;100945.53;;;1.48;88.35
45253;BME280;63171;50.520;30.486;2023-02-11T08:00:30;100950.66;;;1.46;87.72
45253;BME280;63171;50.520;30.486;2023-02-11T08:01:22;100947.28;;;1.41;87.97
45253;BME280;63171;50.520;30.486;2023-02-11T08:02:13;100942.94;;;1.50;87.94
45253;BME280;63171;50.520;30.486;2023-02-11T08:03:05;100940.28;;;1.56;87.96
45253;BME280;63171;50.520;30.486;2023-02-11T08:03:58;100944.59;;;1.55;88.34
45253;BME280;63171;50.520;30.486;2023-02-11T08:04:49;100937.81;;;1.42;88.25
45253;BME280;63171;50.520;30.486;2023-02-11T08:05:39;100943.78;;;1.45;88.54
45253;BME280;63171;50.520;30.486;2023-02-11T08:06:33;100943.81;;;1.44;88.36
45253;BME280;63171;50.520;30.486;2023-02-11T08:07:22;100943.72;;;1.55;88.30
45253;BME280;63171;50.520;30.486;2023-02-11T08:08:15;100946.38;;;1.50;88.02
45253;BME280;63171;50.520;30.486;2023-02-11T08:09:06;100947.19;;;1.54;88.13
45253;BME280;63171;50.520;30.486;2023-02-11T08:09:57;100948.00;;;1.57;88.44
45253;BME280;63171;50.520;30.486;2023-02-11T08:10:47;100945.44;;;1.57;88.08
45253;BME280;63171;50.520;30.486;2023-02-11T08:11:41;100944.53;;;1.60;88.39
45253;BME280;63171;50.520;30.486;2023-02-11T08:12:31;100942.81;;;1.59;88.20
45253;BME280;63171;50.520;30.486;2023-02-11T08:13:21;100937.78;;;1.48;88.20
45253;BME280;63171;50.520;30.486;2023-02-11T08:14:11;100940.34;;;1.50;88.18
45253;BME280;63171;50.520;30.486;2023-02-11T08:15:03;100937.66;;;1.60;88.43
45253;BME280;63171;50.520;30.486;2023-02-11T08:15:56;100934.97;;;1.72;88.74
45253;BME280;63171;50.520;30.486;2023-02-11T08:16:46;100937.56;;;1.71;88.71
45253;BME280;63171;50.520;30.486;2023-02-11T08:17:36;100931.50;;;1.73;88.46
45253;BME280;63171;50.520;30.486;2023-02-11T08:18:29;100934.97;;;1.74;88.76
45253;BME280;63171;50.520;30.486;2023-02-11T08:19:19;100927.22;;;1.74;89.02
45253;BME280;63171;50.520;30.486;2023-02-11T08:20:09;100932.38;;;1.75;88.85
45253;BME280;63171;50.520;30.486;2023-02-11T08:21:03;100935.78;;;1.79;88.94
45253;BME280;63171;50.520;30.486;2023-02-11T08:21:55;100931.50;;;1.76;88.79
45253;BME280;63171;50.520;30.486;2023-02-11T08:22:46;100938.38;;;1.79;88.55
45253;BME280;63171;50.520;30.486;2023-02-11T08:23:37;100946.06;;;1.82;88.64
45253;BME280;63171;50.520;30.486;2023-02-11T08:24:27;100940.13;;;1.72;88.74
45253;BME280;63171;50.520;30.486;2023-02-11T08:25:17;100940.97;;;1.73;88.79
45253;BME280;63171;50.520;30.486;2023-02-11T08:26:10;100943.59;;;1.70;88.58
45253;BME280;63171;50.520;30.486;2023-02-11T08:27:00;100945.31;;;1.74;88.74
45253;BME280;63171;50.520;30.486;2023-02-11T08:27:51;100943.53;;;1.77;89.08
45253;BME280;63171;50.520;30.486;2023-02-11T08:28:42;100946.03;;;1.87;88.75
45253;BME280;63171;50.520;30.486;2023-02-11T08:29:33;100937.38;;;1.92;89.21
45253;BME280;63171;50.520;30.486;2023-02-11T08:30:23;100937.34;;;1.95;89.02
45253;BME280;63171;50.520;30.486;2023-02-11T08:31:16;100930.50;;;1.91;89.22
45253;BME280;63171;50.520;30.486;2023-02-11T08:32:06;100945.16;;;1.89;89.05
45253;BME280;63171;50.520;30.486;2023-02-11T08:32:57;100946.09;;;1.81;88.74
45253;BME280;63171;50.520;30.486;2023-02-11T08:33:48;100940.84;;;1.87;89.01
45253;BME280;63171;50.520;30.486;2023-02-11T08:34:39;100940.88;;;1.85;88.99
45253;BME280;63171;50.520;30.486;2023-02-11T08:35:29;100934.00;;;1.87;89.01
45253;BME280;63171;50.520;30.486;2023-02-11T08:36:22;100936.47;;;1.96;89.09
45253;BME280;63171;50.520;30.486;2023-02-11T08:37:13;100939.91;;;1.95;89.31
45253;BME280;63171;50.520;30.486;2023-02-11T08:38:03;100930.44;;;1.97;88.91
45253;BME280;63171;50.520;30.486;2023-02-11T08:38:54;100935.63;;;1.94;89.03
45253;BME280;63171;50.520;30.486;2023-02-11T08:39:45;100932.22;;;1.91;89.28
45253;BME280;63171;50.520;30.486;2023-02-11T08:40:35;100932.22;;;1.91;89.20
45253;BME280;63171;50.520;30.486;2023-02-11T08:41:26;100932.25;;;1.89;89.15
45253;BME280;63171;50.520;30.486;2023-02-11T08:42:16;100919.28;;;1.94;89.08
45253;BME280;63171;50.520;30.486;2023-02-11T08:43:07;100917.59;;;1.91;88.87
45253;BME280;63171;50.520;30.486;2023-02-11T08:43:57;100922.00;;;1.80;88.71
45253;BME280;63171;50.520;30.486;2023-02-11T08:44:47;100923.75;;;1.78;88.86
45253;BME280;63171;50.520;30.486;2023-02-11T08:45:38;100918.50;;;1.84;88.89
45253;BME280;63171;50.520;30.486;2023-02-11T08:46:28;100924.50;;;1.89;89.04
45253;BME280;63171;50.520;30.486;2023-02-11T08:47:19;100921.84;;;1.94;89.27
45253;BME280;63171;50.520;30.486;2023-02-11T08:48:09;100921.84;;;1.95;89.09
45253;BME280;63171;50.520;30.486;2023-02-11T08:49:01;100914.94;;;1.97;89.07
45253;BME280;63171;50.520;30.486;2023-02-11T08:49:50;100922.66;;;1.97;89.36
45253;BME280;63171;50.520;30.486;2023-02-11T08:50:41;100914.03;;;2.03;89.18
45253;BME280;63171;50.520;30.486;2023-02-11T08:51:32;100914.03;;;2.01;88.81
45253;BME280;63171;50.520;30.486;2023-02-11T08:52:22;100917.50;;;1.97;89.49
45253;BME280;63171;50.520;30.486;2023-02-11T08:53:12;100909.75;;;1.99;89.04
45253;BME280;63171;50.520;30.486;2023-02-11T08:54:03;100913.16;;;2.04;89.35
45253;BME280;63171;50.520;30.486;2023-02-11T08:54:54;100903.63;;;2.07;89.45
45253;BME280;63171;50.520;30.486;2023-02-11T08:55:47;100907.09;;;2.06;89.20
45253;BME280;63171;50.520;30.486;2023-02-11T08:56:37;100896.78;;;2.05;89.47
45253;BME280;63171;50.520;30.486;2023-02-11T08:57:28;100893.34;;;2.03;89.00
45253;BME280;63171;50.520;30.486;2023-02-11T08:58:18;100901.13;;;1.98;89.18
45253;BME280;63171;50.520;30.486;2023-02-11T08:59:12;100895.09;;;2.02;89.22
45253;BME280;63171;50.520;30.486;2023-02-11T09:00:02;100905.31;;;2.10;89.22
45253;BME280;63171;50.520;30.486;2023-02-11T09:00:59;100898.41;;;2.11;89.70
45253;BME280;63171;50.520;30.486;2023-02-11T09:01:49;100888.16;;;2.04;89.70
45253;BME280;63171;50.520;30.486;2023-02-11T09:02:40;100896.00;;;1.95;89.02
45253;BME280;63171;50.520;30.486;2023-02-11T09:03:30;100885.78;;;1.88;89.19
45253;BME280;63171;50.520;30.486;2023-02-11T09:04:21;100898.66;;;1.89;89.56
45253;BME280;63171;50.520;30.486;2023-02-11T09:05:11;100894.31;;;1.93;89.54
45253;BME280;63171;50.520;30.486;2023-02-11T09:06:04;100887.41;;;1.93;89.11
45253;BME280;63171;50.520;30.486;2023-02-11T09:06:54;100900.31;;;1.95;89.43
45253;BME280;63171;50.520;30.486;2023-02-11T09:07:45;100893.41;;;1.97;89.54
45253;BME280;63171;50.520;30.486;2023-02-11T09:08:38;100889.09;;;1.97;nan
45253;BME280;63171;50.520;30.486;2023-02-11T09:09:29;100885.75;;;1.89;89.47
45253;BME280;63171;50.520;30.486;2023-02-11T09:10:22;100884.84;;;1.93;89.39
45253;BME280;63171;50.520;30.486;2023-02-11T09:11:13;100879.66;;;1.93;89.17
45253;BME280;63171;50.520;30.486;2023-02-11T09:12:03;100881.38;;;1.94;89.37
45253;BME280;63171;50.520;30.486;2023-02-11T09:12:54;100878.72;;;2.02;89.60
45253;BME280;63171;50.520;30.486;2023-02-11T09:13:44;100876.13;;;2.03;89.29
45253;BME280;63171;50.520;30.486;2023-02-11T09:14:35;100871.00;;;1.97;89.70
45253;BME280;63171;50.520;30.486;2023-02-11T09:15:25;100870.28;;;1.88;89.40
45253;BME280;63171;50.520;30.486;2023-02-11T09:16:17;100860.81;;;1.85;nan
45253;BME280;63171;50.520;30.486;2023-02-11T09:17:07;100858.22;;;1.85;89.65
45253;BME280;63171;50.520;30.486;2023-02-11T09:17:57;100867.69;;;1.85;89.82
45253;BME280;63171;50.520;30.486;2023-02-11T09:18:47;100857.41;;;1.82;89.77
45253;BME280;63171;50.520;30.486;2023-02-11T09:19:40;100851.28;;;1.92;89.91
45253;BME280;63171;50.520;30.486;2023-02-11T09:20:30;100842.63;;;1.94;89.43
45253;BME280;63171;50.520;30.486;2023-02-11T09:21:20;100847.81;;;1.94;89.93
45253;BME280;63171;50.520;30.486;2023-02-11T09:22:11;100840.94;;;1.93;89.64
45253;BME280;63171;50.520;30.486;2023-02-11T09:23:01;100838.34;;;1.93;89.96
45253;BME280;63171;50.520;30.486;2023-02-11T09:23:52;100846.94;;;1.94;89.86
45253;BME280;63171;50.520;30.486;2023-02-11T09:24:42;100847.81;;;1.94;89.70
45253;BME280;63171;50.520;30.486;2023-02-11T09:25:33;100840.94;;;1.93;89.90
45253;BME280;63171;50.520;30.486;2023-02-11T09:26:24;100841.84;;;1.89;90.15
45253;BME280;63171;50.520;30.486;2023-02-11T09:27:15;100838.25;;;1.99;89.87
45253;BME280;63171;50.520;30.486;2023-02-11T09:28:05;100840.00;;;1.97;90.26
45253;BME280;63171;50.520;30.486;2023-02-11T09:28:56;100833.09;;;2.02;90.17
45253;BME280;63171;50.520;30.486;2023-02-11T09:29:46;100838.28;;;1.98;90.02
45253;BME280;63171;50.520;30.486;2023-02-11T09:30:37;100840.94;;;1.93;90.02
45253;BME280;63171;50.520;30.486;2023-02-11T09:31:28;100832.25;;;1.99;90.06
45253;BME280;63171;50.520;30.486;2023-02-11T09:32:20;100829.66;;;1.99;89.98
45253;BME280;63171;50.520;30.486;2023-02-11T09:33:09;100830.50;;;1.99;90.04
45253;BME280;63171;50.520;30.486;2023-02-11T09:34:02;100822.69;;;2.05;90.63
45253;BME280;63171;50.520;30.486;2023-02-11T09:34:54;100835.56;;;2.08;90.37
45253;BME280;63171;50.520;30.486;2023-02-11T09:35:45;100832.22;;;2.02;90.58
45253;BME280;63171;50.520;30.486;2023-02-11T09:36:36;100839.13;;;2.01;90.14
45253;BME280;63171;50.520;30.486;2023-02-11T09:37:27;100837.41;;;2.02;90.55
45253;BME280;63171;50.520;30.486;2023-02-11T09:38:17;100830.44;;;2.05;90.83
45253;BME280;63171;50.520;30.486;2023-02-11T09:39:11;100839.94;;;2.03;90.12
45253;BME280;63171;50.520;30.486;2023-02-11T09:40:01;100835.56;;;2.08;90.85
45253;BME280;63171;50.520;30.486;2023-02-11T09:40:51;100826.91;;;2.13;90.49
45253;BME280;63171;50.520;30.486;2023-02-11T09:42:05;100832.91;;;2.16;90.77
45253;BME280;63171;50.520;30.486;2023-02-11T09:43:02;100827.75;;;2.15;90.55
45253;BME280;63171;50.520;30.486;2023-02-11T09:43:54;100831.34;;;2.03;90.87
45253;BME280;63171;50.520;30.486;2023-02-11T09:44:46;100828.69;;;2.07;90.51
45253;BME280;63171;50.520;30.486;2023-02-11T09:45:37;100830.44;;;2.07;91.05
45253;BME280;63171;50.520;30.486;2023-02-11T09:46:32;100833.00;;;2.08;90.61
45253;BME280;63171;50.520;30.486;2023-02-11T09:47:27;100823.44;;;2.14;90.90
45253;BME280;63171;50.520;30.486;2023-02-11T09:48:20;100817.38;;;2.18;91.21
45253;BME280;63171;50.520;30.486;2023-02-11T09:49:17;100816.50;;;2.19;91.38
45253;BME280;63171;50.520;30.486;2023-02-11T09:50:13;100819.06;;;2.20;91.26
45253;BME280;63171;50.520;30.486;2023-02-11T09:51:04;100813.16;;;2.11;91.07
45253;BME280;63171;50.520;30.486;2023-02-11T09:51:57;100811.44;;;2.10;91.27
45253;BME280;63171;50.520;30.486;2023-02-11T09:52:54;100806.22;;;2.16;91.34
45253;BME280;63171;50.520;30.486;2023-02-11T09:53:50;100804.44;;;2.19;91.25
45253;BME280;63171;50.520;30.486;2023-02-11T09:54:51;100802.72;;;2.18;91.32
45253;BME280;63171;50.520;30.486;2023-02-11T09:55:45;100801.91;;;2.16;91.08
45253;BME280;63171;50.520;30.486;2023-02-11T09:56:36;100801.91;;;2.13;91.27
45253;BME280;63171;50.520;30.486;2023-02-11T09:57:30;100799.34;;;2.12;91.23
45253;BME280;63171;50.520;30.486;2023-02-11T09:58:25;100803.50;;;2.23;91.81
45253;BME280;63171;50.520;30.486;2023-02-11T09:59:15;100798.41;;;2.19;91.08
45253;BME280;63171;50.520;30.486;2023-02-11T10:00:17;100798.31;;;2.26;91.34
45253;BME280;63171;50.520;30.486;2023-02-11T10:01:16;100795.81;;;2.20;91.08
45253;BME280;63171;50.520;30.486;2023-02-11T10:02:16;100789.91;;;2.09;91.32
45253;BME280;63171;50.520;30.486;2023-02-11T10:03:24;100788.16;;;2.11;91.43
45253;BME280;63171;50.520;30.486;2023-02-11T10:04:31;100786.34;;;2.19;91.54
45253;BME280;63171;50.520;30.486;2023-02-11T10:05:34;100787.09;;;2.26;91.39
45253;BME280;63171;50.520;30.486;2023-02-11T10:06:38;100780.06;;;2.37;91.86
45253;BME280;63171;50.520;30.486;2023-02-11T10:07:36;100779.34;;;2.29;91.68
45253;BME280;63171;50.520;30.486;2023-02-11T10:08:35;100778.50;;;2.25;91.61
45253;BME280;63171;50.520;30.486;2023-02-11T10:09:39;100775.06;;;2.25;91.96
45253;BME280;63171;50.520;30.486;2023-02-11T10:10:40;100776.91;;;2.18;91.88
45253;BME280;63171;50.520;30.486;2023-02-11T10:11:40;100765.56;;;2.25;92.01
45253;BME280;63171;50.520;30.486;2023-02-11T10:12:49;100760.31;;;2.33;91.83
45253;BME280;63171;50.520;30.486;2023-02-11T10:13:52;100763.09;;;2.19;91.81
45253;BME280;63171;50.520;30.486;2023-02-11T10:15:10;100758.00;;;2.15;91.81
45253;BME280;63171;50.520;30.486;2023-02-11T10:16:12;100757.84;;;2.24;91.78
45253;BME280;63171;50.520;30.486;2023-02-11T10:17:13;100747.50;;;2.24;91.98
45253;BME280;63171;50.520;30.486;2023-02-11T10:18:21;100742.34;;;2.24;92.13
45253;BME280;63171;50.520;30.486;2023-02-11T10:19:29;100740.56;;;2.29;92.13
45253;BME280;63171;50.520;30.486;2023-02-11T10:20:30;100742.28;;;2.30;92.09
45253;BME280;63171;50.520;30.486;2023-02-11T10:21:29;100733.69;;;2.28;91.80
45253;BME280;63171;50.520;30.486;2023-02-11T10:22:24;100731.09;;;2.26;91.84
45253;BME280;63171;50.520;30.486;2023-02-11T10:23:21;100729.38;;;2.27;92.33
45253;BME280;63171;50.520;30.486;2023-02-11T10:24:14;100731.09;;;2.29;91.95
45253;BME280;63171;50.520;30.486;2023-02-11T10:25:17;100735.41;;;2.29;92.13
45253;BME280;63171;50.520;30.486;2023-02-11T10:26:11;100731.91;;;2.31;92.17
45253;BME280;63171;50.520;30.486;2023-02-11T10:27:07;100725.81;;;2.35;92.42
45253;BME280;63171;50.520;30.486;2023-02-11T10:28:10;100730.25;;;2.26;91.92
45253;BME280;63171;50.520;30.486;2023-02-11T10:29:09;100728.53;;;2.25;92.39
45253;BME280;63171;50.520;30.486;2023-02-11T10:30:05;100721.66;;;2.25;92.06
45253;BME280;63171;50.520;30.486;2023-02-11T10:31:00;100726.78;;;2.28;92.34
45253;BME280;63171;50.520;30.486;2023-02-11T10:31:52;100729.19;;;2.41;92.18
45253;BME280;63171;50.520;30.486;2023-02-11T10:32:44;100722.25;;;2.44;92.75
45253;BME280;63171;50.520;30.486;2023-02-11T10:33:42;100726.63;;;2.41;92.65
45253;BME280;63171;50.520;30.486;2023-02-11T10:34:39;100725.72;;;2.40;92.15
45253;BME280;63171;50.520;30.486;2023-02-11T10:35:32;100723.19;;;2.37;92.17
45253;BME280;63171;50.520;30.486;2023-02-11T10:36:25;100718.88;;;2.37;92.68
45253;BME280;63171;50.520;30.486;2023-02-11T10:37:17;100721.44;;;2.39;92.44
45253;BME280;63171;50.520;30.486;2023-02-11T10:38:07;100720.47;;;2.48;92.87
45253;BME280;63171;50.520;30.486;2023-02-11T10:38:59;100728.25;;;2.46;92.56
45253;BME280;63171;50.520;30.486;2023-02-11T10:39:49;100724.66;;;2.53;92.93
45253;BME280;63171;50.520;30.486;2023-02-11T10:40:40;100727.22;;;2.56;92.85
45253;BME280;63171;50.520;30.486;2023-02-11T10:41:33;100726.31;;;2.59;92.74
45253;BME280;63171;50.520;30.486;2023-02-11T10:42:26;100714.28;;;2.58;92.45
45253;BME280;63171;50.520;30.486;2023-02-11T10:43:18;100716.03;;;2.56;92.80
45253;BME280;63171;50.520;30.486;2023-02-11T10:44:20;100712.63;;;2.52;92.49
45253;BME280;63171;50.520;30.486;2023-02-11T10:45:18;100711.72;;;2.56;92.98
45253;BME280;63171;50.520;30.486;2023-02-11T10:46:18;100709.00;;;2.62;93.07
45253;BME280;63171;50.520;30.486;2023-02-11T10:47:14;100702.97;;;2.63;92.60
45253;BME280;63171;50.520;30.486;2023-02-11T10:48:36;100696.97;;;2.61;92.75
45253;BME280;63171;50.520;30.486;2023-02-11T10:49:33;100698.66;;;2.62;92.88
45253;BME280;63171;50.520;30.486;2023-02-11T10:50:26;100696.88;;;2.67;92.92
45253;BME280;63171;50.520;30.486;2023-02-11T10:51:20;100701.13;;;2.72;93.19
45253;BME280;63171;50.520;30.486;2023-02-11T10:52:19;100695.97;;;2.70;92.94
45253;BME280;63171;50.520;30.486;2023-02-11T10:53:15;100688.91;;;2.78;92.88
45253;BME280;63171;50.520;30.486;2023-02-11T10:54:17;100688.13;;;2.75;92.97
45253;BME280;63171;50.520;30.486;2023-02-11T10:55:15;100685.66;;;2.67;92.69
45253;BME280;63171;50.520;30.486;2023-02-11T10:56:11;100688.28;;;2.64;92.58
45253;BME280;63171;50.520;30.486;2023-02-11T10:57:01;100684.81;;;2.65;92.78
45253;BME280;63171;50.520;30.486;2023-02-11T10:57:55;100682.13;;;2.73;93.03
45253;BME280;63171;50.520;30.486;2023-02-11T10:58:55;100680.28;;;2.79;92.95
45253;BME280;63171;50.520;30.486;2023-02-11T10:59:46;100679.47;;;2.76;92.80
45253;BME280;63171;50.520;30.486;2023-02-11T11:00:39;100682.06;;;2.76;92.72
45253;BME280;63171;50.520;30.486;2023-02-11T11:01:39;100672.69;;;2.70;92.79
45253;BME280;63171;50.520;30.486;2023-02-11T11:02:33;100671.97;;;2.62;92.47
45253;BME280;63171;50.520;30.486;2023-02-11T11:03:26;100668.66;;;2.52;92.39
45253;BME280;63171;50.520;30.486;2023-02-11T11:04:33;100666.72;;;2.65;92.79
45253;BME280;63171;50.520;30.486;2023-02-11T11:05:28;100666.69;;;2.68;92.81
45253;BME280;63171;50.520;30.486;2023-02-11T11:06:30;100658.94;;;2.68;92.99
45253;BME280;63171;50.520;30.486;2023-02-11T11:07:23;100663.25;;;2.66;92.86
45253;BME280;63171;50.520;30.486;2023-02-11T11:08:14;100654.66;;;2.65;92.88
45253;BME280;63171;50.520;30.486;2023-02-11T11:09:05;100653.72;;;2.71;92.99
45253;BME280;63171;50.520;30.486;2023-02-11T11:09:57;100646.84;;;2.70;92.90
45253;BME280;63171;50.520;30.486;2023-02-11T11:11:01;100645.09;;;2.71;92.80
45253;BME280;63171;50.520;30.486;2023-02-11T11:11:52;100646.78;;;2.73;93.24
45253;BME280;63171;50.520;30.486;2023-02-11T11:12:47;100634.81;;;2.66;92.74
45253;BME280;63171;50.520;30.486;2023-02-11T11:13:40;100642.44;;;2.74;92.84
45253;BME280;63171;50.520;30.486;2023-02-11T11:14:30;100637.28;;;2.74;92.95
45253;BME280;63171;50.520;30.486;2023-02-11T11:15:23;100631.97;;;2.80;92.82
45253;BME280;63171;50.520;30.486;2023-02-11T11:16:20;100627.69;;;2.79;93.23
45253;BME280;63171;50.520;30.486;2023-02-11T11:17:17;100624.31;;;2.75;92.84
45253;BME280;63171;50.520;30.486;2023-02-11T11:18:12;100620.78;;;2.81;93.07
45253;BME280;63171;50.520;30.486;2023-02-11T11:19:18;100611.22;;;2.84;93.03
45253;BME280;63171;50.520;30.486;2023-02-11T11:20:24;100615.59;;;2.81;93.19
45253;BME280;63171;50.520;30.486;2023-02-11T11:21:19;100612.22;;;2.76;93.00
45253;BME280;63171;50.520;30.486;2023-02-11T11:22:19;100616.56;;;2.75;93.18
45253;BME280;63171;50.520;30.486;2023-02-11T11:23:15;100606.97;;;2.80;93.22
45253;BME280;63171;50.520;30.486;2023-02-11T11:24:15;100602.78;;;2.75;93.16